Time;durP1;ratioP1;P1;durP2;ratioP2;P2;SDS_P1;SDS_P2;PMS_P1;PMS_P2;Temp;Humidity;BMP_temperature;BMP_pressure;BME280_temperature;BME280_humidity;BME280_pressure;Samples;Min_cycle;Max_cycle;Signal;HPM_P1;HPM_P2
2022/05/18 00:00:32;;;;;;;2.37;1.97;;;;;;;17.93;93.93;100606.75;5027962;28;20219;-75
2022/05/18 00:03:04;;;;;;;4.20;2.40;;;;;;;17.88;94.41;100602.59;5030335;28;20184;-75
2022/05/18 00:05:34;;;;;;;2.17;1.97;;;;;;;17.83;95.10;100605.38;5026893;28;20256;-75
2022/05/18 00:08:00;;;;;;;2.63;1.67;;;;;;;17.79;95.41;100603.75;5022944;28;20570;-76
2022/05/18 00:10:26;;;;;;;2.97;2.30;;;;;;;17.73;95.97;100602.22;5022919;28;20192;-76
2022/05/18 00:12:51;;;;;;;2.67;2.00;;;;;;;17.70;96.44;100601.47;5024940;28;20311;-76
2022/05/18 00:15:19;;;;;;;2.23;2.03;;;;;;;17.66;96.73;100603.34;5026073;28;20706;-76
2022/05/18 00:17:45;;;;;;;2.30;2.10;;;;;;;17.64;97.50;100610.38;5024986;28;20295;-76
2022/05/18 00:20:11;;;;;;;2.20;2.03;;;;;;;17.59;97.93;100614.91;5027954;28;20278;-76
2022/05/18 00:22:44;;;;;;;3.60;2.40;;;;;;;17.56;98.10;100609.75;5024625;28;20210;-76
2022/05/18 00:25:10;;;;;;;3.37;2.37;;;;;;;17.50;98.54;100622.16;5030160;28;20201;-76
2022/05/18 00:27:35;;;;;;;2.57;2.37;;;;;;;17.46;98.50;100624.94;5025500;28;20642;-76
2022/05/18 00:30:00;;;;;;;2.80;2.53;;;;;;;17.41;99.26;100619.00;5027307;28;20191;-76
2022/05/18 00:32:26;;;;;;;2.27;2.10;;;;;;;17.34;99.40;100619.16;5028517;28;20207;-76
2022/05/18 00:34:51;;;;;;;3.47;2.30;;;;;;;17.27;99.30;100620.28;5025824;28;20202;-76
2022/05/18 00:37:16;;;;;;;2.30;2.10;;;;;;;17.21;99.66;100628.31;5021313;28;20527;-76
2022/05/18 00:39:42;;;;;;;2.30;2.10;;;;;;;17.11;99.70;100627.72;5023357;28;20183;-76
2022/05/18 00:42:20;;;;;;;2.60;2.40;;;;;;;17.04;99.88;100629.69;5022228;28;20234;-76
2022/05/18 00:44:46;;;;;;;2.57;2.37;;;;;;;16.97;100.00;100628.19;5029525;28;20192;-76
2022/05/18 00:47:12;;;;;;;2.40;2.20;;;;;;;16.91;100.00;100630.94;5029452;28;20210;-76
2022/05/18 00:49:39;;;;;;;2.40;2.20;;;;;;;16.83;100.00;100627.69;5029567;28;20188;-76
2022/05/18 00:52:06;;;;;;;2.43;2.23;;;;;;;16.75;100.00;100627.94;5025630;28;20208;-76
2022/05/18 00:54:33;;;;;;;2.10;2.00;;;;;;;16.68;100.00;100637.69;5023221;28;20192;-76
2022/05/18 00:57:08;;;;;;;2.47;2.27;;;;;;;16.61;100.00;100638.75;5026976;28;20223;-76
2022/05/18 00:59:44;;;;;;;2.60;2.40;;;;;;;16.55;100.00;100644.19;5025124;28;20187;-76
2022/05/18 01:02:10;;;;;;;2.70;2.20;;;;;;;16.50;100.00;100638.22;5025361;28;20187;-76
2022/05/18 01:04:36;;;;;;;2.57;2.37;;;;;;;16.43;100.00;100633.16;5023101;28;20183;-76
2022/05/18 01:07:07;;;;;;;2.47;2.27;;;;;;;16.37;100.00;100633.34;5020802;28;20659;-75
2022/05/18 01:09:45;;;;;;;2.40;2.23;;;;;;;16.34;100.00;100637.75;5020084;28;20192;-76
2022/05/18 01:12:13;;;;;;;2.63;2.40;;;;;;;16.30;100.00;100635.25;5026105;28;20235;-76
2022/05/18 01:14:44;;;;;;;3.33;2.50;;;;;;;16.29;100.00;100635.28;5025070;28;20184;-76
2022/05/18 01:17:14;;;;;;;3.00;2.37;;;;;;;16.26;100.00;100635.41;5027956;28;20226;-76
2022/05/18 01:19:46;;;;;;;2.80;2.60;;;;;;;16.23;100.00;100631.09;5024586;28;20238;-75
2022/05/18 01:22:40;;;;;;;3.73;2.33;;;;;;;16.18;100.00;100633.00;5028381;28;20187;-74
2022/05/18 01:25:23;;;;;;;2.63;2.43;;;;;;;16.12;100.00;100641.81;5019186;28;20721;-75
2022/05/18 01:27:50;;;;;;;4.30;2.47;;;;;;;16.07;100.00;100641.09;5023428;28;20205;-75
2022/05/18 01:30:15;;;;;;;2.90;2.70;;;;;;;16.04;100.00;100632.47;5031920;28;20179;-75
2022/05/18 01:32:46;;;;;;;2.43;2.23;;;;;;;16.02;100.00;100634.28;5032171;28;20945;-76
2022/05/18 01:35:19;;;;;;;2.50;2.30;;;;;;;15.99;100.00;100638.69;5022972;28;20187;-75
2022/05/18 01:37:44;;;;;;;3.47;2.60;;;;;;;15.98;100.00;100638.72;5021146;28;20208;-77
2022/05/18 01:40:47;;;;;;;2.93;2.43;;;;;;;15.96;100.00;100636.16;5027649;28;20713;-75
2022/05/18 01:43:18;;;;;;;2.83;2.63;;;;;;;15.96;100.00;100645.72;5031850;28;20247;-76
2022/05/18 01:45:43;;;;;;;3.20;2.00;;;;;;;15.92;100.00;100634.50;5028054;28;20233;-75
2022/05/18 01:48:12;;;;;;;2.83;2.60;;;;;;;15.92;100.00;100644.09;5027706;28;20228;-77
2022/05/18 01:50:39;;;;;;;3.20;2.87;;;;;;;15.90;100.00;100645.91;5033303;28;20682;-75
2022/05/18 01:53:05;;;;;;;3.30;2.70;;;;;;;15.88;100.00;100642.47;5028020;28;20282;-75
2022/05/18 01:55:32;;;;;;;2.77;2.57;;;;;;;15.85;100.00;100654.69;5027696;28;20405;-76
2022/05/18 01:57:57;;;;;;;3.37;2.97;;;;;;;15.81;100.00;100652.16;5028101;28;20190;-77
2022/05/18 02:00:23;;;;;;;2.77;2.57;;;;;;;15.78;100.00;100654.84;5027918;28;20191;-75
2022/05/18 02:02:49;;;;;;;3.67;2.60;;;;;;;15.74;100.00;100654.06;5026288;28;20250;-75
2022/05/18 02:05:14;;;;;;;2.83;2.60;;;;;;;15.70;100.00;100652.44;5029618;28;20195;-76
2022/05/18 02:07:39;;;;;;;3.30;3.00;;;;;;;15.66;100.00;100667.31;5026838;28;20741;-75
2022/05/18 02:10:06;;;;;;;2.93;2.67;;;;;;;15.64;100.00;100665.63;5022509;28;20237;-75
2022/05/18 02:12:32;;;;;;;4.10;2.80;;;;;;;15.59;100.00;100662.28;5030469;28;20220;-76
2022/05/18 02:14:58;;;;;;;2.93;2.60;;;;;;;15.55;100.00;100669.31;5027073;28;20557;-77
2022/05/18 02:17:24;;;;;;;3.17;2.90;;;;;;;15.53;100.00;100665.88;5025610;28;20219;-75
2022/05/18 02:19:49;;;;;;;3.03;2.57;;;;;;;15.48;100.00;100670.34;5027987;28;20190;-76
2022/05/18 02:22:14;;;;;;;3.30;3.03;;;;;;;15.44;100.00;100666.06;5028829;28;20567;-75
2022/05/18 02:24:40;;;;;;;3.33;3.00;;;;;;;15.38;100.00;100661.88;5024191;28;20193;-76
2022/05/18 02:27:05;;;;;;;3.03;2.50;;;;;;;15.37;100.00;100652.31;5020693;28;20221;-75
2022/05/18 02:29:31;;;;;;;2.80;2.60;;;;;;;15.34;100.00;100660.25;5027493;28;20195;-75
2022/05/18 02:31:56;;;;;;;3.10;2.90;;;;;;;15.34;100.00;100655.03;5029196;28;20215;-75
2022/05/18 02:34:21;;;;;;;3.30;3.10;;;;;;;15.37;100.00;100658.41;5029112;28;20297;-76
2022/05/18 02:36:48;;;;;;;3.37;3.07;;;;;;;15.37;100.00;100655.81;5028589;28;20682;-76
2022/05/18 02:39:14;;;;;;;3.27;3.00;;;;;;;15.33;100.00;100656.75;5027641;28;20187;-76
2022/05/18 02:41:39;;;;;;;3.17;2.80;;;;;;;15.28;100.00;100666.44;5027506;28;20707;-76
2022/05/18 02:44:05;;;;;;;5.40;2.87;;;;;;;15.23;100.00;100663.94;5025347;28;20211;-76
2022/05/18 02:46:30;;;;;;;2.70;2.50;;;;;;;15.22;100.00;100663.97;5028523;28;20261;-76
2022/05/18 02:48:56;;;;;;;3.80;3.50;;;;;;;15.21;100.00;100657.88;5027446;28;20180;-76
2022/05/18 02:51:22;;;;;;;3.10;2.90;;;;;;;15.20;100.00;100664.00;5026758;28;20624;-76
2022/05/18 02:53:48;;;;;;;3.30;3.00;;;;;;;15.19;100.00;100662.31;5027301;28;20571;-76
2022/05/18 02:56:23;;;;;;;4.10;3.10;;;;;;;15.15;100.00;100671.06;5027543;28;20203;-76
2022/05/18 02:58:50;;;;;;;3.27;2.57;;;;;;;15.13;100.00;100664.16;5027183;28;20686;-76
2022/05/18 03:01:20;;;;;;;2.87;2.67;;;;;;;15.09;100.00;100669.47;5025755;28;20771;-76
2022/05/18 03:03:45;;;;;;;3.90;2.80;;;;;;;15.05;100.00;100672.19;5028431;28;20553;-75
2022/05/18 03:06:14;;;;;;;3.23;2.80;;;;;;;15.00;100.00;100672.25;5026310;28;20201;-75
2022/05/18 03:08:42;;;;;;;3.10;2.80;;;;;;;14.94;100.00;100673.25;5024872;28;20238;-75
2022/05/18 03:11:08;;;;;;;2.87;2.67;;;;;;;14.88;100.00;100678.59;5028131;28;20190;-76
2022/05/18 03:13:34;;;;;;;3.30;3.00;;;;;;;14.82;100.00;100678.72;5026855;28;20613;-75
2022/05/18 03:16:00;;;;;;;3.77;2.90;;;;;;;14.78;100.00;100677.91;5026708;28;20495;-75
2022/05/18 03:18:25;;;;;;;3.20;3.00;;;;;;;14.75;100.00;100677.97;5025544;28;20190;-75
2022/05/18 03:23:35;;;;;;;3.90;3.10;;;;;;;14.69;100.00;100693.72;5026160;28;20217;-75
2022/05/18 03:26:08;;;;;;;3.23;2.93;;;;;;;14.63;100.00;100688.63;5026927;28;20663;-75
2022/05/18 03:28:34;;;;;;;4.27;3.40;;;;;;;14.58;100.00;100691.31;5017145;28;20231;-76
2022/05/18 03:30:59;;;;;;;3.67;3.07;;;;;;;14.54;100.00;100691.38;5019263;28;20273;-76
2022/05/18 03:33:25;;;;;;;3.37;3.07;;;;;;;14.51;100.00;100696.66;5029831;28;20318;-75
2022/05/18 03:35:51;;;;;;;3.87;3.13;;;;;;;14.47;100.00;100691.50;5028160;28;20217;-75
2022/05/18 03:38:18;;;;;;;3.57;3.27;;;;;;;14.48;100.00;100700.16;5021820;28;20283;-75
2022/05/18 03:40:43;;;;;;;3.60;3.20;;;;;;;14.47;100.00;100707.13;5023643;28;21134;-75
2022/05/18 03:43:09;;;;;;;3.60;3.30;;;;;;;14.49;100.00;100704.50;5031781;28;20206;-75
2022/05/18 03:45:34;;;;;;;3.60;3.30;;;;;;;14.49;100.00;100701.88;5027256;28;20200;-76
2022/05/18 03:48:00;;;;;;;3.20;3.00;;;;;;;14.52;100.00;100709.66;5029661;28;20240;-76
2022/05/18 03:50:28;;;;;;;3.40;3.10;;;;;;;14.53;100.00;100710.50;5025883;28;20286;-75
2022/05/18 03:52:55;;;;;;;4.63;3.40;;;;;;;14.53;100.00;100708.75;5025470;28;20235;-75
2022/05/18 03:55:21;;;;;;;5.07;3.50;;;;;;;14.55;100.00;100707.00;5031636;28;20196;-76
2022/05/18 03:57:46;;;;;;;3.33;3.10;;;;;;;14.56;100.00;100703.50;5029883;28;20733;-76
2022/05/18 04:00:12;;;;;;;3.47;3.17;;;;;;;14.62;100.00;100705.13;5029263;28;20186;-76
2022/05/18 04:02:38;;;;;;;3.60;3.30;;;;;;;14.67;100.00;100705.03;5031455;28;20230;-76
2022/05/18 04:05:03;;;;;;;3.40;3.10;;;;;;;14.75;100.00;100717.06;5027445;28;20194;-76
2022/05/18 04:07:29;;;;;;;3.47;2.87;;;;;;;14.83;100.00;100722.13;5031778;28;20241;-76
2022/05/18 04:09:54;;;;;;;5.27;3.13;;;;;;;14.91;100.00;100719.38;5031088;28;20194;-75
2022/05/18 04:12:19;;;;;;;4.00;3.60;;;;;;;15.23;100.00;100733.47;5029758;28;20214;-75
2022/05/18 04:14:45;;;;;;;6.63;3.43;;;;;;;15.77;100.00;100726.19;5029502;28;20197;-75
2022/05/18 04:17:10;;;;;;;5.93;3.67;;;;;;;16.30;100.00;100723.19;5024331;28;20214;-76
2022/05/18 04:19:36;;;;;;;3.17;2.87;;;;;;;16.73;100.00;100729.03;5028952;28;20208;-76
2022/05/18 04:22:01;;;;;;;4.17;3.10;;;;;;;16.86;100.00;100732.16;5031432;28;20209;-76
2022/05/18 04:24:26;;;;;;;3.30;3.00;;;;;;;16.81;100.00;100726.22;5021116;28;20197;-76
2022/05/18 04:26:52;;;;;;;4.17;3.13;;;;;;;16.76;100.00;100731.56;5020619;28;20219;-76
2022/05/18 04:29:17;;;;;;;3.40;3.10;;;;;;;16.85;100.00;100736.53;5021748;28;20186;-76
2022/05/18 04:31:43;;;;;;;4.40;3.20;;;;;;;16.97;100.00;100742.34;5025891;28;20190;-76
2022/05/18 04:34:08;;;;;;;3.07;2.87;;;;;;;17.11;100.00;100736.72;5029330;28;20194;-76
2022/05/18 04:36:34;;;;;;;3.33;3.03;;;;;;;17.09;100.00;100744.63;5034715;28;20305;-76
2022/05/18 04:38:59;;;;;;;3.90;3.30;;;;;;;17.04;100.00;100744.72;5029701;28;20195;-76
2022/05/18 04:41:25;;;;;;;6.87;3.60;;;;;;;16.96;100.00;100748.47;5027699;28;20735;-75
2022/05/18 04:43:50;;;;;;;3.37;3.00;;;;;;;16.92;100.00;100747.66;5030115;28;20215;-76
2022/05/18 04:46:16;;;;;;;3.50;3.30;;;;;;;16.86;100.00;100753.09;5027753;28;20208;-76
2022/05/18 04:48:42;;;;;;;3.70;3.17;;;;;;;16.84;100.00;100760.94;5029229;28;20277;-76
2022/05/18 04:51:07;;;;;;;5.40;3.63;;;;;;;16.84;100.00;100757.50;5028755;28;20194;-76
2022/05/18 04:53:34;;;;;;;3.40;3.10;;;;;;;16.89;100.00;100766.91;5029015;28;20208;-76
2022/05/18 04:56:00;;;;;;;4.47;3.10;;;;;;;16.97;100.00;100766.75;5027486;28;20221;-76
2022/05/18 04:58:25;;;;;;;3.43;3.13;;;;;;;17.05;100.00;100767.38;5027171;28;20201;-76
2022/05/18 05:01:06;;;;;;;3.83;3.00;;;;;;;17.13;100.00;100779.38;5026660;28;20198;-76
2022/05/18 05:03:31;;;;;;;3.43;3.13;;;;;;;17.21;100.00;100778.25;5025111;28;20180;-76
2022/05/18 05:05:57;;;;;;;3.63;2.70;;;;;;;17.28;100.00;100776.31;5028484;28;21012;-76
2022/05/18 05:08:22;;;;;;;3.40;3.10;;;;;;;17.44;100.00;100778.50;5028954;28;20605;-76
2022/05/18 05:10:48;;;;;;;3.27;2.97;;;;;;;17.74;100.00;100781.06;5026471;28;20194;-76
2022/05/18 05:13:13;;;;;;;3.60;3.30;;;;;;;17.90;100.00;100778.81;5023991;28;20264;-76
2022/05/18 05:15:38;;;;;;;3.30;3.00;;;;;;;18.19;100.00;100784.91;5029435;28;20191;-75
2022/05/18 05:18:04;;;;;;;4.47;3.50;;;;;;;18.74;100.00;100779.56;5025487;28;20210;-76
2022/05/18 05:20:30;;;;;;;3.60;3.30;;;;;;;19.76;97.08;100786.31;5030110;28;20224;-76
2022/05/18 05:22:55;;;;;;;3.27;2.97;;;;;;;21.16;92.94;100789.28;5030534;28;20187;-76
2022/05/18 05:25:21;;;;;;;3.00;2.70;;;;;;;22.47;88.78;100789.22;5030018;28;20206;-75
2022/05/18 05:27:46;;;;;;;3.33;3.03;;;;;;;23.48;85.29;100791.03;5029166;28;20289;-76
2022/05/18 05:30:13;;;;;;;2.93;2.70;;;;;;;24.33;82.57;100786.25;5027875;28;20183;-76
2022/05/18 05:32:39;;;;;;;5.30;3.07;;;;;;;25.17;80.29;100792.69;5031082;28;20211;-76
2022/05/18 05:35:08;;;;;;;2.80;2.60;;;;;;;25.70;78.37;100790.25;5029438;28;20213;-75
2022/05/18 05:37:33;;;;;;;5.40;3.40;;;;;;;26.22;75.97;100797.53;5027663;28;20317;-75
2022/05/18 05:39:59;;;;;;;4.23;3.23;;;;;;;26.73;74.45;100791.44;5030734;28;20972;-76
2022/05/18 05:42:24;;;;;;;3.93;3.03;;;;;;;26.79;72.00;100783.06;5028315;28;20250;-75
2022/05/18 05:44:49;;;;;;;4.23;3.17;;;;;;;27.06;72.16;100787.41;5025794;28;20279;-75
2022/05/18 05:47:16;;;;;;;4.97;3.20;;;;;;;27.49;71.38;100783.47;5055121;28;20286;-75
2022/05/18 05:49:42;;;;;;;3.10;2.80;;;;;;;28.02;70.67;100777.81;5020570;28;20271;-75
2022/05/18 05:52:09;;;;;;;5.70;3.00;;;;;;;28.26;69.74;100785.78;5029271;28;20211;-75
2022/05/18 05:54:35;;;;;;;5.10;3.00;;;;;;;28.49;68.81;100787.66;5028464;28;20206;-75
2022/05/18 05:57:04;;;;;;;3.27;2.70;;;;;;;28.69;68.57;100786.97;5028591;28;20214;-76
2022/05/18 05:59:31;;;;;;;5.63;2.90;;;;;;;28.66;67.04;100787.19;5026645;28;20475;-76
2022/05/18 06:02:09;;;;;;;4.30;3.20;;;;;;;28.39;66.87;100783.03;5023605;28;20279;-76
2022/05/18 06:04:36;;;;;;;3.10;2.73;;;;;;;28.65;66.01;100788.16;5026945;28;20191;-77
2022/05/18 06:07:02;;;;;;;2.97;2.73;;;;;;;29.10;65.94;100783.84;5027833;28;20207;-76
2022/05/18 06:09:27;;;;;;;9.13;3.10;;;;;;;29.54;64.71;100779.44;5023675;28;20188;-76
2022/05/18 06:11:53;;;;;;;3.70;2.30;;;;;;;29.79;64.54;100788.09;5027178;28;20663;-76
2022/05/18 06:14:19;;;;;;;4.27;2.57;;;;;;;29.91;63.82;100778.19;5024785;28;20217;-76
2022/05/18 06:16:46;;;;;;;3.60;2.63;;;;;;;30.04;63.73;100789.56;5026865;28;20204;-76
2022/05/18 06:19:13;;;;;;;2.70;2.50;;;;;;;30.35;63.41;100795.00;5026868;28;20606;-76
2022/05/18 06:21:38;;;;;;;5.70;3.50;;;;;;;30.30;62.76;100789.22;5024493;28;20188;-76
2022/05/18 06:24:04;;;;;;;3.80;2.77;;;;;;;30.53;62.95;100795.25;5025587;28;20176;-76
2022/05/18 06:26:29;;;;;;;4.57;3.00;;;;;;;30.49;62.19;100800.97;5060319;28;20926;-76
2022/05/18 06:28:55;;;;;;;3.70;2.80;;;;;;;30.65;62.40;100798.72;5025055;28;20188;-75
2022/05/18 06:31:20;;;;;;;2.90;2.47;;;;;;;30.60;61.68;100805.44;5027904;28;20211;-76
2022/05/18 06:33:46;;;;;;;2.50;2.30;;;;;;;30.78;62.20;100805.69;5032193;28;20207;-76
2022/05/18 06:36:12;;;;;;;3.40;2.40;;;;;;;30.87;61.85;100805.69;5023698;28;20208;-76
2022/05/18 06:38:37;;;;;;;4.83;2.70;;;;;;;30.92;61.97;100799.97;5031274;28;20639;-76
2022/05/18 06:41:21;;;;;;;3.13;2.50;;;;;;;31.16;61.78;100804.16;5027266;28;20777;-76
2022/05/18 06:43:47;;;;;;;2.80;2.60;;;;;;;31.21;61.57;100801.94;5024470;28;20194;-76
2022/05/18 06:46:13;;;;;;;3.30;2.87;;;;;;;31.07;60.75;100800.44;5028341;28;20218;-76
2022/05/18 06:48:41;;;;;;;2.83;2.50;;;;;;;31.19;60.93;100803.03;5021674;28;20192;-77
2022/05/18 06:51:07;;;;;;;2.90;2.53;;;;;;;31.25;60.88;100808.69;5027369;28;20183;-76
2022/05/18 06:53:32;;;;;;;3.00;2.70;;;;;;;31.10;60.39;100802.84;5031991;28;20675;-76
2022/05/18 06:55:58;;;;;;;3.90;2.53;;;;;;;31.08;60.78;100799.47;5025781;28;20227;-75
2022/05/18 06:58:23;;;;;;;3.23;2.50;;;;;;;31.20;60.30;100804.72;5021633;28;20187;-76
2022/05/18 07:00:49;;;;;;;2.83;2.50;;;;;;;31.30;60.55;100810.97;5026429;28;20188;-76
2022/05/18 07:03:15;;;;;;;3.60;2.47;;;;;;;31.29;60.94;100809.28;5028771;28;20184;-76
2022/05/18 07:05:40;;;;;;;5.07;2.70;;;;;;;31.20;60.84;100807.41;5026461;28;20196;-76
2022/05/18 07:08:06;;;;;;;4.43;3.13;;;;;;;31.05;61.73;100807.75;5021586;28;20188;-75
2022/05/18 07:10:32;;;;;;;4.73;3.20;;;;;;;30.85;61.64;100804.16;5028828;28;20229;-76
2022/05/18 07:12:57;;;;;;;2.87;2.30;;;;;;;30.79;61.63;100810.88;5033685;28;20243;-76
2022/05/18 07:15:23;;;;;;;4.93;2.63;;;;;;;30.73;61.42;100806.06;5058325;28;20188;-76
2022/05/18 07:17:48;;;;;;;4.30;3.10;;;;;;;30.68;61.68;100809.13;5024664;28;20803;-76
2022/05/18 07:20:14;;;;;;;2.90;2.40;;;;;;;30.63;61.46;100802.50;5026463;28;20207;-76
2022/05/18 07:22:39;;;;;;;2.73;2.53;;;;;;;30.19;61.76;100810.59;5032182;28;20237;-77
2022/05/18 07:25:05;;;;;;;3.20;2.83;;;;;;;30.03;62.10;100800.38;5028456;28;20286;-76
2022/05/18 07:27:30;;;;;;;3.20;2.50;;;;;;;30.00;62.64;100795.31;5029809;28;20207;-77
2022/05/18 07:29:56;;;;;;;3.20;2.87;;;;;;;30.12;62.54;100802.28;5031986;28;20655;-75
2022/05/18 07:32:21;;;;;;;5.53;2.80;;;;;;;30.05;62.85;100801.94;5028916;28;20211;-75
2022/05/18 07:34:47;;;;;;;3.50;2.73;;;;;;;30.01;62.65;100800.53;5044618;28;20765;-76
2022/05/18 07:37:14;;;;;;;2.60;2.30;;;;;;;30.00;62.50;100803.31;5031284;28;20211;-76
2022/05/18 07:39:40;;;;;;;2.87;2.60;;;;;;;29.89;62.85;100806.81;5027228;28;20196;-76
2022/05/18 07:42:06;;;;;;;2.70;2.50;;;;;;;29.80;63.13;100803.09;5033500;28;20182;-76
2022/05/18 07:44:33;;;;;;;3.03;2.70;;;;;;;29.58;63.49;100804.88;5028523;28;21032;-76
2022/05/18 07:46:58;;;;;;;3.13;2.47;;;;;;;29.53;63.75;100804.41;5028925;28;20695;-76
2022/05/18 07:49:23;;;;;;;4.10;2.70;;;;;;;29.45;64.01;100805.00;5027585;28;20195;-75
2022/05/18 07:51:49;;;;;;;3.37;2.60;;;;;;;29.38;64.22;100806.50;5026932;28;21079;-76
2022/05/18 07:54:14;;;;;;;5.27;2.73;;;;;;;29.32;65.00;100812.28;5030599;28;20222;-76
2022/05/18 07:56:41;;;;;;;4.93;2.60;;;;;;;29.12;64.89;100812.03;5031407;28;20207;-76
2022/05/18 07:59:08;;;;;;;4.27;2.70;;;;;;;28.97;65.68;100811.47;5028266;28;20246;-76
2022/05/18 08:01:36;;;;;;;4.13;2.90;;;;;;;28.88;65.75;100806.88;5030314;28;20643;-76
2022/05/18 08:04:02;;;;;;;3.60;2.53;;;;;;;28.70;65.91;100812.63;5061654;28;20184;-76
2022/05/18 08:06:27;;;;;;;3.50;2.70;;;;;;;28.42;66.17;100811.22;5028817;28;20207;-76
2022/05/18 08:08:54;;;;;;;2.50;2.30;;;;;;;28.33;66.73;100810.13;5034102;28;21117;-76
2022/05/18 08:16:48;;;;;;;3.10;2.80;;;;;;;27.89;67.15;100812.47;5028390;28;20218;-76
2022/05/18 08:19:15;;;;;;;3.50;2.60;;;;;;;27.82;67.64;100808.56;5027332;28;20606;-77
2022/05/18 08:21:41;;;;;;;2.80;2.43;;;;;;;27.78;68.36;100809.75;5028664;28;20553;-77
2022/05/18 08:24:08;;;;;;;3.53;2.83;;;;;;;27.67;68.42;100816.72;5028646;28;20262;-77
2022/05/18 08:26:34;;;;;;;4.70;2.90;;;;;;;27.47;67.96;100804.00;5025823;28;20211;-75
2022/05/18 08:29:00;;;;;;;3.90;2.73;;;;;;;27.12;67.95;100804.72;5024858;28;20237;-75
2022/05/18 08:31:26;;;;;;;3.13;2.83;;;;;;;26.86;68.18;100810.88;5029137;28;20198;-76
2022/05/18 08:33:53;;;;;;;3.13;2.83;;;;;;;26.97;68.70;100812.81;5033401;28;20196;-76
2022/05/18 08:36:18;;;;;;;4.23;2.73;;;;;;;26.96;68.16;100812.91;5027759;28;20428;-76
2022/05/18 08:38:44;;;;;;;3.97;2.63;;;;;;;26.79;67.61;100809.59;5031548;28;20888;-76
2022/05/18 08:41:21;;;;;;;3.43;2.53;;;;;;;26.84;68.17;100801.34;5027712;28;20190;-76
2022/05/18 08:43:52;;;;;;;2.90;2.40;;;;;;;26.75;68.67;100805.44;5043175;28;20190;-77
2022/05/18 08:46:29;;;;;;;4.63;2.90;;;;;;;26.72;68.64;100803.00;5030959;28;20215;-75
2022/05/18 08:49:12;;;;;;;3.10;2.80;;;;;;;26.65;69.41;100801.72;5029114;28;20241;-76
2022/05/18 08:51:48;;;;;;;3.50;2.70;;;;;;;26.60;69.44;100808.22;5028885;28;20187;-76
2022/05/18 08:54:19;;;;;;;3.30;2.83;;;;;;;26.63;69.48;100801.84;5028789;28;20257;-76
2022/05/18 08:56:45;;;;;;;4.57;3.03;;;;;;;26.61;70.26;100801.94;5026845;28;20211;-76
2022/05/18 08:59:19;;;;;;;3.53;3.23;;;;;;;26.60;70.26;100805.56;5028903;28;20193;-76
2022/05/18 09:01:46;;;;;;;3.60;3.30;;;;;;;26.64;70.22;100806.19;5034447;28;20596;-76
2022/05/18 09:04:18;;;;;;;3.50;3.00;;;;;;;26.69;69.80;100787.28;5028752;28;20175;-76
2022/05/18 09:06:59;;;;;;;3.20;2.90;;;;;;;26.74;70.68;100791.31;5031618;28;20884;-76
2022/05/18 09:12:35;;;;;;;3.37;3.07;;;;;;;26.87;70.26;100786.03;5019002;28;20226;-75
2022/05/18 09:15:07;;;;;;;3.63;3.33;;;;;;;27.00;70.28;100793.97;5024248;28;20194;-78
2022/05/18 09:17:51;;;;;;;3.90;3.07;;;;;;;27.03;70.18;100790.28;5029740;28;20219;-76
2022/05/18 09:20:24;;;;;;;3.47;3.10;;;;;;;27.02;70.37;100785.91;5022600;28;20556;-77
2022/05/18 09:23:23;;;;;;;5.10;3.40;;;;;;;26.93;70.23;100782.09;5024839;28;20262;-76
2022/05/18 09:25:52;;;;;;;3.20;2.90;;;;;;;27.01;70.32;100781.56;5022914;28;20233;-75
2022/05/18 09:28:55;;;;;;;4.27;3.07;;;;;;;26.96;69.87;100781.88;5028863;28;20314;-76
2022/05/18 09:31:39;;;;;;;3.00;2.70;;;;;;;27.05;69.21;100777.72;5024102;28;20325;-76
2022/05/18 09:34:20;;;;;;;3.43;3.13;;;;;;;27.10;68.05;100782.72;5022394;28;20199;-76
2022/05/18 09:36:56;;;;;;;4.07;3.33;;;;;;;27.11;68.45;100781.75;5027935;28;20724;-76
2022/05/18 09:39:26;;;;;;;13.40;3.33;;;;;;;27.02;68.14;100775.28;5022140;28;20651;-76
2022/05/18 09:41:54;;;;;;;3.00;2.70;;;;;;;27.23;68.19;100772.91;5029176;28;20657;-77
2022/05/18 09:44:32;;;;;;;3.00;2.80;;;;;;;27.30;67.42;100782.13;5029287;28;20195;-76
2022/05/18 09:47:00;;;;;;;3.53;2.83;;;;;;;27.36;67.25;100772.88;5028004;28;20318;-77
2022/05/18 09:49:50;;;;;;;3.50;2.87;;;;;;;27.46;66.65;100765.09;5027668;28;20187;-77
2022/05/18 09:52:19;;;;;;;3.47;2.63;;;;;;;27.52;65.21;100772.63;5041244;28;20645;-77
2022/05/18 09:54:44;;;;;;;2.73;2.53;;;;;;;27.54;63.95;100773.38;5025680;28;20219;-77
2022/05/18 09:57:18;;;;;;;3.13;2.57;;;;;;;27.63;64.26;100769.19;5027380;28;20202;-76
2022/05/18 09:59:49;;;;;;;3.40;2.40;;;;;;;27.69;63.95;100768.72;5020492;28;20184;-76
2022/05/18 10:07:57;;;;;;;3.00;2.77;;;;;;;27.86;64.35;100745.34;5023580;28;20310;-76
2022/05/18 10:10:29;;;;;;;2.77;2.57;;;;;;;27.96;63.86;100749.03;5027940;28;20243;-76
2022/05/18 10:12:54;;;;;;;3.77;2.83;;;;;;;27.93;63.52;100747.44;5032214;28;20261;-75
2022/05/18 10:15:25;;;;;;;2.70;2.50;;;;;;;27.96;63.27;100747.22;5027031;28;20191;-75
2022/05/18 10:17:58;;;;;;;3.10;2.90;;;;;;;27.95;63.49;100748.16;5027982;28;20229;-77
2022/05/18 10:20:33;;;;;;;4.07;3.00;;;;;;;28.02;63.44;100751.22;5028916;28;20294;-76
2022/05/18 10:23:01;;;;;;;2.60;2.40;;;;;;;28.07;63.44;100748.19;5020884;28;20202;-76
2022/05/18 10:25:47;;;;;;;4.27;2.70;;;;;;;28.08;63.57;100741.91;5027004;28;20666;-77
2022/05/18 10:28:22;;;;;;;4.03;2.40;;;;;;;28.27;63.01;100744.91;5025313;28;20557;-76
2022/05/18 10:31:01;;;;;;;2.60;2.40;;;;;;;28.31;62.37;100740.19;5029201;28;20187;-75
2022/05/18 10:33:34;;;;;;;3.10;2.77;;;;;;;28.30;62.18;100733.16;5030893;28;20626;-75
2022/05/18 10:36:15;;;;;;;3.20;3.00;;;;;;;28.39;61.09;100740.47;5024255;28;20805;-77
2022/05/18 10:39:00;;;;;;;3.67;2.93;;;;;;;28.22;61.88;100733.75;5026852;28;20187;-77
2022/05/18 10:41:45;;;;;;;3.93;2.70;;;;;;;28.13;61.56;100739.78;5024286;28;20195;-75
2022/05/18 10:44:22;;;;;;;4.40;2.53;;;;;;;28.28;61.38;100738.63;5024752;28;20195;-76
2022/05/18 10:46:51;;;;;;;2.87;2.67;;;;;;;28.44;60.43;100730.28;5026835;28;20211;-77
2022/05/18 10:49:28;;;;;;;3.97;2.90;;;;;;;28.55;59.98;100716.13;5022179;28;20218;-76
2022/05/18 10:51:54;;;;;;;2.73;2.53;;;;;;;28.66;59.63;100717.13;5031483;28;20193;-75
2022/05/18 10:54:30;;;;;;;5.03;2.60;;;;;;;28.57;59.44;100719.53;5031061;28;20203;-76
2022/05/18 10:57:13;;;;;;;2.83;2.63;;;;;;;28.32;59.36;100707.28;5024765;28;20570;-76
2022/05/18 11:00:00;;;;;;;4.30;2.97;;;;;;;28.38;59.49;100703.28;5024510;28;20199;-76
2022/05/18 11:02:47;;;;;;;3.43;2.90;;;;;;;28.57;59.49;100705.38;5028547;28;20187;-76
2022/05/18 11:05:16;;;;;;;2.30;2.10;;;;;;;28.52;58.46;100700.41;5032326;28;20187;-77
2022/05/18 11:07:43;;;;;;;2.90;2.37;;;;;;;28.62;59.10;100697.88;5024414;28;20202;-75
2022/05/18 11:10:08;;;;;;;4.40;2.20;;;;;;;28.58;58.94;100694.59;5026031;28;20844;-75
2022/05/18 11:12:34;;;;;;;2.90;2.60;;;;;;;28.68;58.81;100693.88;5026848;28;20216;-77
2022/05/18 11:14:59;;;;;;;3.03;2.00;;;;;;;28.66;57.94;100687.84;5026737;28;20176;-76
2022/05/18 11:17:33;;;;;;;4.17;2.43;;;;;;;28.77;57.01;100679.00;5030327;28;20219;-75
2022/05/18 11:20:25;;;;;;;2.60;2.10;;;;;;;28.82;57.25;100677.66;5025394;28;20268;-76
2022/05/18 11:23:09;;;;;;;2.07;1.87;;;;;;;28.58;55.87;100675.97;5031138;28;20663;-77
2022/05/18 11:26:05;;;;;;;2.53;2.30;;;;;;;28.31;56.61;100678.97;5024155;28;20685;-76
2022/05/18 11:28:37;;;;;;;2.10;2.00;;;;;;;28.37;56.64;100672.31;5032457;28;20595;-76
2022/05/18 11:31:09;;;;;;;3.47;2.13;;;;;;;28.62;56.44;100668.56;5031404;28;20194;-75
2022/05/18 11:33:47;;;;;;;2.13;1.93;;;;;;;28.77;56.43;100661.22;5032369;28;20298;-76
2022/05/18 11:36:18;;;;;;;2.43;2.10;;;;;;;28.85;55.90;100666.75;5029254;28;20292;-75
2022/05/18 11:38:55;;;;;;;2.77;2.23;;;;;;;28.66;56.36;100664.72;5029248;28;20221;-74
2022/05/18 11:41:23;;;;;;;2.10;1.90;;;;;;;28.50;55.63;100654.44;5030003;28;20298;-75
2022/05/18 11:44:07;;;;;;;3.07;1.97;;;;;;;28.47;55.89;100649.34;5030142;28;20238;-75
2022/05/18 11:46:50;;;;;;;2.40;2.13;;;;;;;28.73;55.61;100649.13;5028681;28;20734;-75